createdAt,value
2023-02-14T00:00:04.956Z,9.02
2023-02-14T00:02:06.903Z,9.04
2023-02-14T00:04:11.921Z,9.11
2023-02-14T00:06:14.386Z,9.09
2023-02-14T00:08:17.306Z,9.12
2023-02-14T00:10:19.189Z,9.21
2023-02-14T00:12:20.925Z,9.08
2023-02-14T00:14:24.024Z,8.98
2023-02-14T00:16:25.876Z,9.00
2023-02-14T00:18:28.792Z,9.00
2023-02-14T00:20:31.612Z,9.01
2023-02-14T00:22:33.234Z,8.99
2023-02-14T00:24:37.233Z,9.09
2023-02-14T00:26:39.280Z,9.08
2023-02-14T00:28:40.946Z,9.08
2023-02-14T00:30:43.977Z,9.03
2023-02-14T00:32:45.595Z,9.02
2023-02-14T00:34:47.313Z,9.06
2023-02-14T00:36:49.173Z,9.06
2023-02-14T00:38:50.817Z,9.10
2023-02-14T00:40:52.484Z,8.98
2023-02-14T00:42:56.918Z,9.00
2023-02-14T00:44:58.565Z,8.98
2023-02-14T00:47:01.633Z,8.92
2023-02-14T00:49:04.125Z,8.81
2023-02-14T00:51:06.027Z,8.70
2023-02-14T00:53:07.729Z,8.74
2023-02-14T00:55:10.494Z,8.76
2023-02-14T00:57:12.119Z,8.78
2023-02-14T00:59:13.905Z,8.73
2023-02-14T01:01:16.994Z,8.83
2023-02-14T01:03:20.265Z,8.72
2023-02-14T01:05:21.996Z,8.72
2023-02-14T01:07:23.707Z,8.76
2023-02-14T01:09:25.506Z,8.72
2023-02-14T01:11:29.289Z,8.53
2023-02-14T01:13:31.690Z,8.62
2023-02-14T01:15:34.083Z,8.62
2023-02-14T01:17:35.693Z,8.58
2023-02-14T01:19:38.695Z,8.58
2023-02-14T01:21:41.638Z,8.56
2023-02-14T01:23:44.519Z,8.54
2023-02-14T01:25:46.268Z,8.52
2023-02-14T01:27:47.858Z,8.46
2023-02-14T01:29:49.611Z,8.40
2023-02-14T01:31:51.630Z,8.36
2023-02-14T01:33:54.379Z,8.37
2023-02-14T01:35:57.492Z,8.38
2023-02-14T01:37:59.427Z,8.33
2023-02-14T01:40:07.145Z,8.28
2023-02-14T01:42:10.718Z,8.26
2023-02-14T01:44:45.764Z,8.25
2023-02-14T01:46:47.544Z,8.21
2023-02-14T01:48:50.772Z,8.27
2023-02-14T01:50:53.943Z,8.31
2023-02-14T01:53:02.440Z,8.31
2023-02-14T01:55:12.155Z,8.25
2023-02-14T01:57:17.398Z,8.25
2023-02-14T01:59:25.253Z,8.23
2023-02-14T02:01:28.105Z,8.18
2023-02-14T02:03:34.100Z,8.25
2023-02-14T02:05:37.844Z,8.28
2023-02-14T02:07:39.962Z,8.25
2023-02-14T02:09:49.204Z,8.26
2023-02-14T02:11:51.264Z,8.17
2023-02-14T02:13:52.911Z,8.14
2023-02-14T02:16:11.148Z,8.11
2023-02-14T02:18:23.955Z,8.15
2023-02-14T02:20:59.248Z,8.02
2023-02-14T02:23:38.568Z,7.96
2023-02-14T02:26:07.102Z,8.03
2023-02-14T02:28:32.133Z,8.00
2023-02-14T02:31:03.925Z,7.99
2023-02-14T02:33:53.296Z,7.94
2023-02-14T02:36:13.103Z,7.90
2023-02-14T02:38:27.896Z,7.97
2023-02-14T02:40:44.654Z,7.88
2023-02-14T02:42:58.317Z,7.90
2023-02-14T02:45:10.696Z,7.88
2023-02-14T02:47:21.389Z,7.90
2023-02-14T02:49:37.039Z,7.88
2023-02-14T02:51:47.957Z,7.74
2023-02-14T02:53:52.410Z,7.66
2023-02-14T02:55:57.556Z,7.56
2023-02-14T02:58:00.013Z,7.51
2023-02-14T03:00:04.235Z,7.58
2023-02-14T03:02:12.683Z,7.64
2023-02-14T03:04:16.593Z,7.64
2023-02-14T03:06:18.178Z,7.69
2023-02-14T03:08:21.168Z,7.71
2023-02-14T03:10:24.837Z,7.66
2023-02-14T03:12:47.156Z,7.69
2023-02-14T03:14:56.061Z,7.65
2023-02-14T03:17:04.453Z,7.58
2023-02-14T03:19:40.011Z,7.59
2023-02-14T03:21:48.680Z,7.58
2023-02-14T03:23:56.525Z,7.52
2023-02-14T03:26:09.985Z,7.58
2023-02-14T03:28:17.549Z,7.49
2023-02-14T03:30:30.296Z,7.43
2023-02-14T03:32:38.749Z,7.48
2023-02-14T03:34:51.477Z,7.47
2023-02-14T03:36:58.537Z,7.42
2023-02-14T03:39:08.037Z,7.34
2023-02-14T03:41:14.078Z,7.33
2023-02-14T03:43:21.320Z,7.31
2023-02-14T03:45:30.333Z,7.36
2023-02-14T03:47:36.110Z,7.38
2023-02-14T03:49:43.587Z,7.41
2023-02-14T03:51:49.774Z,7.37
2023-02-14T03:54:04.801Z,7.37
2023-02-14T03:56:13.894Z,7.33
2023-02-14T03:58:21.487Z,7.17
2023-02-14T04:00:23.771Z,7.19
2023-02-14T04:02:31.042Z,7.27
2023-02-14T04:04:37.086Z,7.33
2023-02-14T04:06:39.085Z,7.28
2023-02-14T04:08:40.766Z,7.29
2023-02-14T04:10:43.710Z,7.32
2023-02-14T04:12:46.229Z,7.34
2023-02-14T04:14:55.354Z,7.25
2023-02-14T04:16:57.054Z,7.24
2023-02-14T04:18:58.654Z,7.24
2023-02-14T04:21:00.696Z,7.23
2023-02-14T04:23:04.328Z,7.13
2023-02-14T04:25:07.883Z,7.14
2023-02-14T04:27:11.390Z,7.06
2023-02-14T04:29:13.282Z,7.04
2023-02-14T04:31:18.034Z,7.07
2023-02-14T04:33:19.715Z,7.10
2023-02-14T04:35:21.658Z,7.08
2023-02-14T04:37:24.257Z,7.03
2023-02-14T04:39:26.316Z,7.00
2023-02-14T04:41:27.943Z,6.95
2023-02-14T04:43:31.116Z,6.90
2023-02-14T04:45:34.527Z,6.83
2023-02-14T04:47:36.193Z,6.78
2023-02-14T04:49:37.861Z,6.84
2023-02-14T04:51:41.781Z,6.83
2023-02-14T04:53:44.089Z,6.89
2023-02-14T04:55:45.765Z,6.85
2023-02-14T04:57:47.751Z,6.81
2023-02-14T04:59:50.806Z,6.93
2023-02-14T05:01:53.119Z,6.97
2023-02-14T05:03:54.822Z,6.95
2023-02-14T05:05:56.598Z,6.92
2023-02-14T05:07:58.235Z,6.90
2023-02-14T05:10:01.353Z,6.85
2023-02-14T05:12:11.105Z,6.89
2023-02-14T05:14:12.718Z,6.87
2023-02-14T05:16:15.757Z,6.92
2023-02-14T05:18:17.325Z,6.91
2023-02-14T05:20:19.057Z,6.91
2023-02-14T05:22:20.623Z,6.91
2023-02-14T05:24:22.308Z,6.88
2023-02-14T05:26:23.891Z,6.77
2023-02-14T05:28:25.577Z,6.71
2023-02-14T05:30:27.284Z,6.74
2023-02-14T05:32:30.196Z,6.74
2023-02-14T05:34:31.716Z,6.78
2023-02-14T05:36:33.462Z,6.75
2023-02-14T05:38:35.035Z,6.78
2023-02-14T05:40:36.581Z,6.66
2023-02-14T05:42:38.373Z,6.67
2023-02-14T05:44:39.940Z,6.67
2023-02-14T05:46:41.512Z,6.68
2023-02-14T05:48:44.578Z,6.62
2023-02-14T05:53:01.841Z,6.55
2023-02-14T05:55:04.337Z,6.59
2023-02-14T05:57:05.894Z,6.63
2023-02-14T05:59:07.457Z,6.60
2023-02-14T06:01:09.046Z,6.59
2023-02-14T06:03:10.664Z,6.62
2023-02-14T06:05:13.513Z,6.67
2023-02-14T06:07:15.125Z,6.61
2023-02-14T06:09:16.761Z,6.61
2023-02-14T06:11:18.344Z,6.54
2023-02-14T06:13:19.946Z,6.48
2023-02-14T06:15:22.244Z,6.45
2023-02-14T06:17:23.805Z,6.45
2023-02-14T06:19:25.385Z,6.50
2023-02-14T06:21:28.444Z,6.51
2023-02-14T06:23:30.052Z,6.54
2023-02-14T06:25:31.781Z,6.53
2023-02-14T06:27:33.473Z,6.58
2023-02-14T06:29:35.054Z,6.55
2023-02-14T06:31:36.998Z,6.56
2023-02-14T06:33:38.669Z,6.58
2023-02-14T06:35:40.185Z,6.59
2023-02-14T06:37:43.204Z,6.60
2023-02-14T06:39:44.778Z,6.61
2023-02-14T06:41:46.363Z,6.59
2023-02-14T06:43:48.196Z,6.60
2023-02-14T06:45:49.778Z,6.62
2023-02-14T06:47:51.408Z,6.67
2023-02-14T06:49:52.982Z,6.64
2023-02-14T06:51:54.545Z,6.69
2023-02-14T06:53:57.579Z,6.70
2023-02-14T06:55:59.200Z,6.73
2023-02-14T06:58:00.843Z,6.75
2023-02-14T07:00:03.037Z,6.78
2023-02-14T07:02:04.956Z,6.81
2023-02-14T07:04:06.485Z,6.85
2023-02-14T07:06:08.020Z,6.82
2023-02-14T07:08:09.701Z,6.82
2023-02-14T07:10:13.328Z,6.79
2023-02-14T07:12:14.916Z,6.83
2023-02-14T07:14:16.477Z,6.84
2023-02-14T07:16:18.104Z,6.84
2023-02-14T07:18:19.747Z,6.86
2023-02-14T07:20:21.538Z,6.81
2023-02-14T07:22:23.112Z,6.83
2023-02-14T07:24:24.777Z,6.89
2023-02-14T07:26:27.796Z,6.93
2023-02-14T07:28:32.512Z,6.87
2023-02-14T07:30:34.264Z,6.91
2023-02-14T07:32:37.165Z,6.90
2023-02-14T07:34:38.705Z,6.90
2023-02-14T07:36:40.341Z,6.98
2023-02-14T07:38:42.022Z,7.05
2023-02-14T07:40:43.726Z,7.07
2023-02-14T07:42:52.670Z,7.15
2023-02-14T07:44:54.359Z,7.23
2023-02-14T07:46:56.041Z,7.29
2023-02-14T07:48:57.557Z,7.33
2023-02-14T07:50:59.576Z,7.30
2023-02-14T07:53:01.433Z,7.31
2023-02-14T07:55:03.036Z,7.23
2023-02-14T07:57:05.480Z,7.15
2023-02-14T07:59:08.457Z,7.14
2023-02-14T08:01:09.953Z,7.14
2023-02-14T08:03:11.599Z,7.21
2023-02-14T08:05:16.335Z,7.30
2023-02-14T08:07:18.107Z,7.31
2023-02-14T08:09:20.715Z,7.28
2023-02-14T08:11:22.290Z,7.29
2023-02-14T08:13:23.864Z,7.29
2023-02-14T08:15:27.850Z,7.34
2023-02-14T08:17:29.400Z,7.36
2023-02-14T08:19:30.922Z,7.40
2023-02-14T08:21:32.640Z,7.45
2023-02-14T08:23:35.129Z,7.48
2023-02-14T08:25:36.698Z,7.52
2023-02-14T08:27:38.324Z,7.56
2023-02-14T08:29:39.876Z,7.62
2023-02-14T08:31:42.965Z,7.64
2023-02-14T08:33:44.614Z,7.64
2023-02-14T08:35:46.298Z,7.57
2023-02-14T08:37:48.076Z,7.47
2023-02-14T08:39:50.020Z,7.16
2023-02-14T08:41:51.581Z,7.17
2023-02-14T08:43:53.220Z,6.99
2023-02-14T08:45:55.255Z,7.00
2023-02-14T08:48:02.691Z,6.93
2023-02-14T08:50:05.757Z,6.99
2023-02-14T08:52:07.323Z,7.11
2023-02-14T08:54:08.873Z,7.20
2023-02-14T08:56:11.990Z,7.10
2023-02-14T08:58:13.632Z,7.05
2023-02-14T09:00:15.941Z,7.04
2023-02-14T09:02:17.502Z,6.99
2023-02-14T09:04:20.441Z,7.02
2023-02-14T09:06:22.099Z,7.10
2023-02-14T09:08:23.684Z,7.08
2023-02-14T09:10:25.703Z,7.05
2023-02-14T09:12:27.363Z,6.87
2023-02-14T09:14:31.173Z,7.04
2023-02-14T09:16:33.782Z,7.20
2023-02-14T09:18:37.835Z,7.31
2023-02-14T09:20:40.723Z,7.43
2023-02-14T09:22:42.369Z,7.44
2023-02-14T09:24:44.670Z,7.40
2023-02-14T09:26:46.185Z,7.39
2023-02-14T09:28:48.177Z,7.44
2023-02-14T09:30:49.835Z,7.51
2023-02-14T09:32:52.583Z,7.59
2023-02-14T09:34:54.227Z,7.63
2023-02-14T09:36:59.929Z,7.72
2023-02-14T09:39:01.720Z,7.78
2023-02-14T09:41:05.840Z,7.76
2023-02-14T09:43:11.635Z,7.82
2023-02-14T09:45:16.660Z,7.79
2023-02-14T09:47:23.052Z,7.81
2023-02-14T09:49:31.632Z,7.87
2023-02-14T09:51:33.405Z,7.92
2023-02-14T09:53:43.667Z,8.01
2023-02-14T09:55:53.957Z,7.97
2023-02-14T09:58:04.792Z,8.00
2023-02-14T10:00:17.451Z,8.04
2023-02-14T10:02:33.639Z,8.11
2023-02-14T10:04:40.508Z,8.14
2023-02-14T10:06:50.399Z,8.18
2023-02-14T10:09:02.845Z,8.21
2023-02-14T10:11:15.375Z,8.19
2023-02-14T10:13:22.469Z,8.22
2023-02-14T10:15:27.478Z,8.25
2023-02-14T10:17:38.260Z,8.25
2023-02-14T10:19:43.694Z,8.26
2023-02-14T10:21:52.170Z,8.31
2023-02-14T10:24:00.210Z,8.34
2023-02-14T10:26:04.154Z,8.36
2023-02-14T10:28:11.292Z,8.37
2023-02-14T10:30:16.871Z,8.35
2023-02-14T10:32:25.204Z,8.37
2023-02-14T10:34:35.076Z,8.40
2023-02-14T10:36:51.221Z,8.44
2023-02-14T10:39:01.405Z,8.44
2023-02-14T10:41:18.974Z,8.52
2023-02-14T10:43:27.903Z,8.52
2023-02-14T10:45:38.954Z,8.55
2023-02-14T10:47:47.302Z,8.54
2023-02-14T10:49:57.896Z,8.54
2023-02-14T10:52:08.301Z,8.56
2023-02-14T10:54:19.205Z,8.55
2023-02-14T10:56:26.110Z,8.58
2023-02-14T10:58:32.186Z,8.57
2023-02-14T11:00:37.821Z,8.54
2023-02-14T11:02:43.304Z,8.46
2023-02-14T11:04:46.364Z,8.46
2023-02-14T11:06:48.147Z,8.52
2023-02-14T11:08:59.152Z,8.54
2023-02-14T11:11:10.944Z,8.53
2023-02-14T11:13:34.916Z,8.61
2023-02-14T11:15:39.740Z,8.59
2023-02-14T11:17:41.849Z,8.60
2023-02-14T11:19:57.143Z,8.61
2023-02-14T11:22:00.066Z,8.58
2023-02-14T11:24:16.730Z,8.58
2023-02-14T11:26:29.902Z,8.58
2023-02-14T11:28:32.186Z,8.58
2023-02-14T11:30:36.660Z,8.61
2023-02-14T11:32:38.848Z,8.63
2023-02-14T11:34:44.418Z,8.69
2023-02-14T11:36:46.009Z,8.69
2023-02-14T11:38:55.917Z,8.73
2023-02-14T11:40:59.433Z,8.72
2023-02-14T11:43:19.187Z,8.77
2023-02-14T11:45:33.339Z,8.78
2023-02-14T11:47:36.285Z,8.80
2023-02-14T11:49:37.965Z,8.83
2023-02-14T11:51:43.930Z,8.79
2023-02-14T11:53:48.379Z,8.83
2023-02-14T11:55:53.851Z,8.86
2023-02-14T11:57:56.428Z,8.85
2023-02-14T12:00:01.845Z,8.87
2023-02-14T12:02:24.444Z,8.87
2023-02-14T12:04:38.115Z,8.85
2023-02-14T12:06:46.498Z,8.91
2023-02-14T12:08:48.291Z,8.83
2023-02-14T12:11:01.966Z,8.94
2023-02-14T12:13:22.998Z,8.94
2023-02-14T12:15:32.355Z,8.93
2023-02-14T12:17:37.350Z,8.95
2023-02-14T12:19:48.957Z,8.99
2023-02-14T12:21:57.911Z,8.98
2023-02-14T12:24:05.932Z,8.99
2023-02-14T12:26:15.280Z,8.97
2023-02-14T12:28:24.814Z,8.96
2023-02-14T12:30:33.157Z,8.98
2023-02-14T12:32:35.498Z,8.99
2023-02-14T12:34:37.386Z,9.02
2023-02-14T12:36:51.564Z,9.03
2023-02-14T12:39:02.458Z,9.04
2023-02-14T12:41:19.494Z,9.08
2023-02-14T12:43:41.122Z,9.10
2023-02-14T12:46:09.614Z,9.16
2023-02-14T12:48:20.420Z,9.11
2023-02-14T12:50:35.149Z,9.19
2023-02-14T12:53:01.185Z,9.17
2023-02-14T12:55:25.786Z,9.19
2023-02-14T12:57:39.340Z,9.15
2023-02-14T12:59:52.063Z,9.11
2023-02-14T13:02:36.985Z,9.06
2023-02-14T13:04:59.503Z,9.11
2023-02-14T13:07:07.826Z,9.14
2023-02-14T13:09:27.665Z,9.13
2023-02-14T13:11:39.588Z,9.13
2023-02-14T13:13:54.288Z,9.15
2023-02-14T13:16:05.012Z,9.08
2023-02-14T13:18:15.008Z,9.16
2023-02-14T13:20:36.800Z,9.14
2023-02-14T13:22:40.567Z,9.15
2023-02-14T13:24:44.532Z,9.17
2023-02-14T13:26:49.842Z,9.17
2023-02-14T13:28:56.083Z,9.20
2023-02-14T13:31:00.038Z,9.23
2023-02-14T13:33:27.508Z,9.25
2023-02-14T13:35:30.316Z,9.27
2023-02-14T13:37:32.887Z,9.27
2023-02-14T13:39:38.656Z,9.23
2023-02-14T13:41:41.250Z,9.24
2023-02-14T13:43:52.043Z,9.27
2023-02-14T13:45:54.682Z,9.30
2023-02-14T13:48:03.376Z,9.34
2023-02-14T13:50:21.511Z,9.36
2023-02-14T13:52:42.948Z,9.30
2023-02-14T13:54:47.823Z,9.29
2023-02-14T13:56:49.715Z,9.30
2023-02-14T13:58:54.018Z,9.31
2023-02-14T14:00:56.571Z,9.27
2023-02-14T14:02:58.314Z,9.26
2023-02-14T14:05:00.000Z,9.22
2023-02-14T14:07:23.984Z,9.23
2023-02-14T14:09:53.318Z,9.24
2023-02-14T14:11:54.956Z,9.25
2023-02-14T14:14:01.807Z,9.24
2023-02-14T14:16:28.549Z,9.30
2023-02-14T14:18:38.141Z,9.26
2023-02-14T14:20:44.416Z,9.21
2023-02-14T14:22:49.298Z,9.22
2023-02-14T14:25:02.291Z,9.21
2023-02-14T14:27:07.221Z,9.18
2023-02-14T14:29:18.137Z,9.20
2023-02-14T14:31:20.328Z,9.21
2023-02-14T14:33:28.687Z,9.21
2023-02-14T14:35:30.211Z,9.25
2023-02-14T14:37:34.078Z,9.28
2023-02-14T14:39:37.208Z,9.29
2023-02-14T14:41:40.401Z,9.30
2023-02-14T14:43:42.372Z,9.25
2023-02-14T14:45:46.949Z,9.29
2023-02-14T14:47:52.907Z,9.29
2023-02-14T14:50:00.274Z,9.31
2023-02-14T14:52:02.035Z,9.29
2023-02-14T14:54:13.145Z,9.28
2023-02-14T14:56:21.924Z,9.26
2023-02-14T14:58:33.237Z,9.32
2023-02-14T15:00:37.147Z,9.35
2023-02-14T15:02:38.908Z,9.31
2023-02-14T15:04:40.637Z,9.25
2023-02-14T15:06:42.452Z,9.10
2023-02-14T15:08:44.550Z,8.91
2023-02-14T15:10:50.564Z,8.77
2023-02-14T15:12:57.237Z,8.51
2023-02-14T15:14:58.878Z,8.64
2023-02-14T15:17:03.313Z,8.75
2023-02-14T15:19:09.082Z,8.78
2023-02-14T15:21:10.828Z,8.89
2023-02-14T15:23:18.426Z,8.90
2023-02-14T15:25:22.522Z,8.97
2023-02-14T15:27:26.319Z,8.97
2023-02-14T15:29:32.104Z,8.95
2023-02-14T15:31:37.030Z,8.87
2023-02-14T15:33:39.083Z,8.93
2023-02-14T15:35:41.980Z,8.98
2023-02-14T15:37:44.435Z,9.01
2023-02-14T15:39:49.522Z,9.00
2023-02-14T15:41:53.680Z,8.78
2023-02-14T15:43:56.541Z,8.24
2023-02-14T15:46:13.528Z,8.10
2023-02-14T15:48:18.665Z,8.26
2023-02-14T15:50:23.452Z,8.37
2023-02-14T15:52:25.377Z,8.49
2023-02-14T15:54:36.698Z,8.55
2023-02-14T15:56:44.279Z,8.66
2023-02-14T15:58:46.617Z,8.70
2023-02-14T16:00:50.082Z,8.70
2023-02-14T16:02:56.403Z,8.74
2023-02-14T16:05:04.678Z,8.76
2023-02-14T16:07:24.764Z,8.79
2023-02-14T16:09:28.628Z,8.79
2023-02-14T16:11:32.137Z,8.85
2023-02-14T16:13:38.440Z,8.79
2023-02-14T16:15:55.754Z,8.45
2023-02-14T16:17:59.844Z,8.16
2023-02-14T16:20:20.556Z,8.14
2023-02-14T16:22:26.032Z,8.12
2023-02-14T16:24:27.674Z,8.05
2023-02-14T16:26:30.850Z,7.69
2023-02-14T16:28:33.382Z,7.51
2023-02-14T16:30:35.400Z,7.37
2023-02-14T16:32:37.110Z,7.47
2023-02-14T16:34:40.581Z,7.47
2023-02-14T16:36:43.426Z,7.30
2023-02-14T16:38:46.134Z,7.24
2023-02-14T16:40:49.808Z,7.28
2023-02-14T16:42:51.415Z,7.04
2023-02-14T16:44:53.435Z,7.03
2023-02-14T16:46:55.010Z,7.13
2023-02-14T16:48:56.799Z,7.32
2023-02-14T16:51:00.155Z,7.47
2023-02-14T16:53:02.113Z,7.52
2023-02-14T16:55:04.960Z,7.52
2023-02-14T16:57:07.333Z,7.66
2023-02-14T16:59:09.103Z,7.75
2023-02-14T17:01:10.857Z,7.88
2023-02-14T17:03:12.632Z,7.93
2023-02-14T17:05:14.397Z,7.91
2023-02-14T17:07:17.392Z,8.00
2023-02-14T17:09:22.799Z,8.00
2023-02-14T17:11:26.842Z,7.92
2023-02-14T17:13:31.528Z,7.92
2023-02-14T17:15:34.071Z,7.97
2023-02-14T17:17:37.303Z,7.83
2023-02-14T17:19:39.289Z,7.65
2023-02-14T17:21:41.297Z,7.38
2023-02-14T17:23:44.315Z,7.39
2023-02-14T17:28:01.465Z,7.44
2023-02-14T17:30:03.634Z,7.49
2023-02-14T17:32:05.609Z,7.42
2023-02-14T17:34:07.417Z,7.51
2023-02-14T17:36:12.021Z,7.63
2023-02-14T17:38:13.748Z,7.75
2023-02-14T17:40:18.466Z,7.80
2023-02-14T17:42:20.068Z,7.90
2023-02-14T17:44:21.653Z,7.97
2023-02-14T17:46:23.457Z,8.02
2023-02-14T17:48:25.080Z,8.03
2023-02-14T17:50:26.699Z,8.00
2023-02-14T17:52:28.383Z,8.02
2023-02-14T17:54:29.992Z,8.07
2023-02-14T17:56:32.952Z,8.11
2023-02-14T17:58:35.004Z,8.11
2023-02-14T18:00:36.576Z,8.15
2023-02-14T18:02:41.104Z,8.15
2023-02-14T18:04:43.114Z,8.13
2023-02-14T18:06:44.986Z,8.19
2023-02-14T18:08:48.362Z,8.21
2023-02-14T18:10:50.317Z,8.23
2023-02-14T18:12:53.279Z,8.23
2023-02-14T18:14:54.951Z,8.22
2023-02-14T18:16:56.642Z,7.98
2023-02-14T18:19:01.817Z,8.07
2023-02-14T18:21:05.525Z,8.01
2023-02-14T18:23:07.078Z,7.71
2023-02-14T18:25:09.098Z,7.72
2023-02-14T18:27:10.675Z,7.64
2023-02-14T18:29:14.051Z,7.35
2023-02-14T18:31:17.554Z,7.22
2023-02-14T18:33:19.929Z,7.07
2023-02-14T18:35:21.472Z,7.07
2023-02-14T18:37:22.986Z,7.14
2023-02-14T18:39:24.636Z,7.17
2023-02-14T18:41:26.931Z,7.17
2023-02-14T18:43:28.602Z,7.10
2023-02-14T18:45:35.512Z,6.94
2023-02-14T18:47:37.119Z,6.78
2023-02-14T18:49:38.838Z,6.88
2023-02-14T18:51:41.761Z,6.73
2023-02-14T18:53:44.760Z,6.80
2023-02-14T18:55:46.392Z,6.74
2023-02-14T18:57:48.049Z,6.82
2023-02-14T18:59:49.854Z,6.84
2023-02-14T19:01:52.988Z,6.66
2023-02-14T19:03:55.549Z,6.47
2023-02-14T19:05:59.305Z,6.49
2023-02-14T19:08:01.278Z,6.72
2023-02-14T19:10:03.544Z,6.87
2023-02-14T19:12:07.255Z,7.04
2023-02-14T19:14:10.324Z,7.03
2023-02-14T19:16:14.032Z,6.99
2023-02-14T19:18:17.934Z,7.00
2023-02-14T19:20:19.769Z,7.05
2023-02-14T19:22:21.600Z,7.18
2023-02-14T19:24:23.296Z,7.26
2023-02-14T19:26:28.178Z,7.37
2023-02-14T19:28:30.111Z,7.44
2023-02-14T19:30:32.704Z,7.47
2023-02-14T19:32:34.333Z,7.52
2023-02-14T19:34:37.630Z,7.60
2023-02-14T19:36:40.281Z,7.67
2023-02-14T19:38:46.599Z,7.71
2023-02-14T19:40:50.502Z,7.69
2023-02-14T19:42:52.459Z,7.73
2023-02-14T19:44:54.147Z,7.77
2023-02-14T19:46:58.148Z,7.81
2023-02-14T19:49:00.992Z,7.85
2023-02-14T19:51:05.607Z,7.85
2023-02-14T19:53:07.126Z,7.90
2023-02-14T19:55:19.972Z,7.93
2023-02-14T19:57:21.907Z,7.93
2023-02-14T19:59:23.608Z,7.94
2023-02-14T20:01:29.236Z,7.96
2023-02-14T20:03:31.011Z,7.94
2023-02-14T20:05:32.593Z,7.93
2023-02-14T20:07:35.534Z,7.98
2023-02-14T20:09:37.167Z,8.03
2023-02-14T20:11:40.920Z,8.00
2023-02-14T20:13:42.559Z,8.01
2023-02-14T20:15:47.116Z,8.01
2023-02-14T20:17:48.674Z,8.00
2023-02-14T20:19:50.272Z,8.02
2023-02-14T20:21:51.992Z,7.99
2023-02-14T20:23:56.941Z,7.98
2023-02-14T20:25:58.895Z,7.94
2023-02-14T20:28:00.478Z,7.96
2023-02-14T20:30:02.070Z,7.95
2023-02-14T20:32:04.050Z,7.97
2023-02-14T20:34:05.766Z,7.96
2023-02-14T20:36:08.640Z,7.98
2023-02-14T20:38:10.292Z,7.94
2023-02-14T20:40:13.551Z,7.93
2023-02-14T20:42:15.182Z,7.90
2023-02-14T20:44:18.997Z,7.91
2023-02-14T20:46:21.587Z,7.92
2023-02-14T20:48:23.488Z,7.91
2023-02-14T20:50:25.114Z,7.93
2023-02-14T20:52:26.768Z,7.96
2023-02-14T20:54:29.478Z,7.96
2023-02-14T20:56:32.451Z,7.95
2023-02-14T20:58:35.416Z,7.91
2023-02-14T21:00:37.111Z,7.92
2023-02-14T21:02:38.770Z,7.95
2023-02-14T21:04:40.703Z,7.86
2023-02-14T21:06:42.295Z,7.48
2023-02-14T21:08:45.081Z,7.46
2023-02-14T21:10:46.742Z,7.53
2023-02-14T21:12:49.832Z,7.59
2023-02-14T21:14:51.505Z,7.60
2023-02-14T21:16:53.106Z,7.54
2023-02-14T21:18:56.831Z,7.39
2023-02-14T21:21:03.781Z,6.89
2023-02-14T21:23:05.353Z,6.68
2023-02-14T21:25:07.460Z,6.60
2023-02-14T21:27:09.049Z,6.55
2023-02-14T21:29:12.106Z,6.43
2023-02-14T21:31:15.678Z,6.36
2023-02-14T21:33:17.339Z,6.53
2023-02-14T21:35:18.852Z,6.67
2023-02-14T21:37:20.477Z,6.82
2023-02-14T21:39:22.431Z,6.97
2023-02-14T21:41:25.957Z,7.07
2023-02-14T21:43:27.579Z,6.93
2023-02-14T21:45:30.775Z,6.93
2023-02-14T21:47:36.574Z,7.05
2023-02-14T21:49:38.250Z,7.12
2023-02-14T21:51:40.630Z,7.17
2023-02-14T21:53:42.709Z,7.22
2023-02-14T21:55:44.436Z,7.30
2023-02-14T21:57:46.100Z,7.34
2023-02-14T21:59:47.727Z,7.37
2023-02-14T22:01:50.665Z,7.39
2023-02-14T22:03:53.046Z,7.41
2023-02-14T22:06:01.236Z,7.38
2023-02-14T22:08:03.016Z,7.29
2023-02-14T22:10:05.788Z,7.16
2023-02-14T22:12:07.577Z,7.13
2023-02-14T22:14:09.153Z,7.00
2023-02-14T22:16:14.192Z,6.66
2023-02-14T22:18:17.670Z,6.44
2023-02-14T22:20:19.641Z,6.53
2023-02-14T22:22:21.255Z,6.56
2023-02-14T22:24:22.806Z,6.68
2023-02-14T22:26:26.682Z,6.79
2023-02-14T22:28:28.312Z,6.66
2023-02-14T22:30:29.806Z,6.69
2023-02-14T22:32:31.405Z,6.68
2023-02-14T22:34:34.649Z,6.61
2023-02-14T22:36:36.366Z,6.66
2023-02-14T22:38:38.837Z,6.68
2023-02-14T22:40:40.391Z,6.72
2023-02-14T22:42:42.007Z,6.76
2023-02-14T22:44:43.615Z,6.67
2023-02-14T22:46:45.197Z,6.69
2023-02-14T22:48:47.644Z,6.69
2023-02-14T22:50:50.501Z,6.72
2023-02-14T22:52:52.063Z,6.79
2023-02-14T22:54:53.615Z,6.70
2023-02-14T22:56:55.194Z,6.82
2023-02-14T22:58:58.839Z,6.85
2023-02-14T23:01:00.476Z,6.85
2023-02-14T23:03:02.080Z,6.95
2023-02-14T23:05:03.833Z,7.02
2023-02-14T23:07:06.886Z,7.09
2023-02-14T23:09:10.560Z,7.18
2023-02-14T23:11:14.609Z,7.24
2023-02-14T23:13:16.146Z,7.30
2023-02-14T23:15:17.884Z,7.20
2023-02-14T23:17:19.479Z,6.89
2023-02-14T23:19:23.832Z,6.89
2023-02-14T23:21:25.408Z,7.00
2023-02-14T23:23:34.588Z,7.09
2023-02-14T23:25:36.317Z,7.12
2023-02-14T23:27:39.364Z,7.02
2023-02-14T23:29:40.988Z,6.98
2023-02-14T23:31:42.755Z,6.66
2023-02-14T23:33:44.388Z,6.81
2023-02-14T23:35:45.996Z,6.90
2023-02-14T23:37:47.548Z,7.02
2023-02-14T23:39:50.623Z,7.08
2023-02-14T23:41:52.624Z,7.16
2023-02-14T23:43:54.185Z,7.20
2023-02-14T23:45:55.789Z,7.24
2023-02-14T23:48:01.737Z,7.21
2023-02-14T23:50:03.306Z,7.30
2023-02-14T23:52:06.482Z,7.30
2023-02-14T23:54:08.594Z,7.32
2023-02-14T23:56:11.497Z,7.33
2023-02-14T23:58:13.008Z,7.32
